Edward J. Moran — WDC9891 — position and weather

sailwx.info

Track history (hours):
 
Tides and Currents Weather Stations Pressure Air Temp Water Temp Dewpoint Dewpoint Depression Visibility Wind Speed Wind Dir Waves Ship Positions

Edward J. Moran

Owner: Moran Towing Corporation, New Canaan, CT. More information available from US FCC via Universal Licensing System and Coast Guard Vessel Documentation Center.

Last reported at 2018-Jan-21 03:00 UTC. Time now 2018-Jan-21 03:12 UTC.
Position N 32°05' W 081°04'.

; draft 5.4 m.

Type: Tug. MMSI: 367108030.

Date/timePositionNaut miles runAvg speedWind from/ knotsBaromVisibWave heightAir tempDewpointWater temp
2018-Jan-21 03:00N 32°05' W 081°04'0 0.0
2018-Jan-21 02:30N 32°05' W 081°04'0 0.0
2018-Jan-21 02:00N 32°05' W 081°04'2 5.0
2018-Jan-21 01:31N 32°06' W 081°07'2 4.2
2018-Jan-21 01:00N 32°08' W 081°08'1 2.5
2018-Jan-21 00:30N 32°07' W 081°07'1 3.0
2018-Jan-21 00:01N 32°05' W 081°06'2 3.0
2018-Jan-20 23:30N 32°07' W 081°07'1 2.2
2018-Jan-20 23:00N 32°07' W 081°08'0 0.7
2018-Jan-20 22:30N 32°08' W 081°08'3 5.4
2018-Jan-20 22:01N 32°06' W 081°06'0 0.6
2018-Jan-20 21:31N 32°05' W 081°06'0 0.0
2018-Jan-20 21:00N 32°05' W 081°06'0 0.3
2018-Jan-20 20:30N 32°05' W 081°06'0 0.3
2018-Jan-20 20:00N 32°06' W 081°06'1 0.4
2018-Jan-20 18:31N 32°05' W 081°06'0 0.0
2018-Jan-20 18:30N 32°05' W 081°06'2 3.1
2018-Jan-20 18:00N 32°06' W 081°07'2 4.1
2018-Jan-20 17:31N 32°08' W 081°08'0 0.7
2018-Jan-20 17:00N 32°08' W 081°08'3 5.4
2018-Jan-20 16:30N 32°06' W 081°06'2 4.2
2018-Jan-20 16:00N 32°05' W 081°04'0 0.0
2018-Jan-20 15:30N 32°05' W 081°04'0 0.0
2018-Jan-20 15:00N 32°05' W 081°04'0 0.0
2018-Jan-20 14:31N 32°05' W 081°04'0 0.7
2018-Jan-20 14:01N 32°05' W 081°03'0 0.6
2018-Jan-20 13:30N 32°05' W 081°03'0 0.9
2018-Jan-20 13:00N 32°05' W 081°03'0 0.1
2018-Jan-20 12:30N 32°05' W 081°03'1 2.0
2018-Jan-20 11:57N 32°05' W 081°04'1 2.0
2018-Jan-20 11:30N 32°05' W 081°05'4 7.8
2018-Jan-20 11:00N 32°08' W 081°08'0 0.1
2018-Jan-20 10:30N 32°08' W 081°08'0 0.6
2018-Jan-20 10:00N 32°08' W 081°08'3 5.8
2018-Jan-20 09:30N 32°06' W 081°06'0 0.1
2018-Jan-20 09:00N 32°06' W 081°06'0 0.0
2018-Jan-20 08:30N 32°06' W 081°06'0 0.0
2018-Jan-20 08:00N 32°06' W 081°06'0 0.0
2018-Jan-20 07:30N 32°06' W 081°06'0 0.0
2018-Jan-20 07:01N 32°06' W 081°06'2 3.9
2018-Jan-20 06:30N 32°07' W 081°08'1 2.5
2018-Jan-20 06:00N 32°08' W 081°09'0 0.0
2018-Jan-20 05:30N 32°08' W 081°09'1 1.6
2018-Jan-20 05:00N 32°07' W 081°08'0 0.7
2018-Jan-20 04:30N 32°07' W 081°08'0 0.0
2018-Jan-20 04:00N 32°07' W 081°08'0 0.0
2018-Jan-20 03:30N 32°07' W 081°08'0 0.0
2018-Jan-20 03:00N 32°07' W 081°08'0 0.0
2018-Jan-20 02:30N 32°07' W 081°08'0 0.0
2018-Jan-20 02:00N 32°07' W 081°08'0 0.0
2018-Jan-20 01:30N 32°07' W 081°08'0 0.0
2018-Jan-20 01:00N 32°07' W 081°08'0 0.0
2018-Jan-20 00:30N 32°07' W 081°08'0 0.0
2018-Jan-20 00:00N 32°07' W 081°08'1 1.6
2018-Jan-19 23:31N 32°08' W 081°08'0 0.1
2018-Jan-19 23:00N 32°08' W 081°08'1 1.1
2018-Jan-19 22:30N 32°07' W 081°08'3 4.7
2018-Jan-19 21:57N 32°05' W 081°06'1 2.0
2018-Jan-19 21:30N 32°06' W 081°07'0 0.1
2018-Jan-19 21:00N 32°06' W 081°07'2 4.8
2018-Jan-19 20:31N 32°05' W 081°04'0 0.6
2018-Jan-19 20:01N 32°05' W 081°04'0 0.0
2018-Jan-19 19:31N 32°05' W 081°04'0 0.0
2018-Jan-19 19:01N 32°05' W 081°04'0 0.0
2018-Jan-19 18:29N 32°05' W 081°04'0 0.0
2018-Jan-19 18:01N 32°05' W 081°04'0 0.0
2018-Jan-19 17:30N 32°05' W 081°04'0 0.0
2018-Jan-19 17:00N 32°05' W 081°04'0 0.0
2018-Jan-19 16:30N 32°05' W 081°04'0 0.0
2018-Jan-19 16:01N 32°05' W 081°04'0 0.0
2018-Jan-19 15:30N 32°05' W 081°04'2 3.8
2018-Jan-19 15:00N 32°05' W 081°06'3 6.5
2018-Jan-19 14:30N 32°08' W 081°08'0 0.3
2018-Jan-19 14:01N 32°08' W 081°08'0 0.8
2018-Jan-19 13:31N 32°08' W 081°09'0 0.0
2018-Jan-19 05:59N 32°08' W 081°09'0 0.1
2018-Jan-19 05:30N 32°08' W 081°09'0 0.0
2018-Jan-19 05:01N 32°08' W 081°09'0 0.1
2018-Jan-19 04:30N 32°08' W 081°08'0 0.3
2018-Jan-19 04:00N 32°08' W 081°08'2 3.2
2018-Jan-19 03:31N 32°07' W 081°07'2 4.4
2018-Jan-19 03:01N 32°05' W 081°06'2 4.3
2018-Jan-19 02:31N 32°07' W 081°07'2 3.0
2018-Jan-19 02:01N 32°08' W 081°08'0 0.4
2018-Jan-19 01:30N 32°08' W 081°09'0 0.0
2018-Jan-19 01:00N 32°08' W 081°09'1 1.9
2018-Jan-19 00:31N 32°07' W 081°08'0 0.1
2018-Jan-19 00:01N 32°07' W 081°08'0 0.5
2018-Jan-18 23:31N 32°07' W 081°08'2 4.5
2018-Jan-18 23:00N 32°06' W 081°06'2 4.5
2018-Jan-18 22:31N 32°05' W 081°04'0 0.0
2018-Jan-18 21:14N 32°05' W 081°04'0 0.0
2018-Jan-18 21:00N 32°05' W 081°04'0 0.0
2018-Jan-18 20:31N 32°05' W 081°04'0 0.0
2018-Jan-18 20:00N 32°05' W 081°04'0 0.0
2018-Jan-18 19:30N 32°05' W 081°04'0 0.0
2018-Jan-18 19:00N 32°05' W 081°04'0 0.0
2018-Jan-18 18:30N 32°05' W 081°04'2 3.7
2018-Jan-18 18:01N 32°05' W 081°06'2 4.0
2018-Jan-18 17:30N 32°07' W 081°08'1 2.0
2018-Jan-18 17:01N 32°08' W 081°08'0 0.5
2018-Jan-18 16:31N 32°07' W 081°08'2 4.9
2018-Jan-18 16:01N 32°06' W 081°06'1 2.0
2018-Jan-18 15:30N 32°06' W 081°07'2 4.2
2018-Jan-18 15:00N 32°08' W 081°08'1 1.4
2018-Jan-18 14:31N 32°07' W 081°08'3 5.5
2018-Jan-18 14:01N 32°05' W 081°06'2 3.6
2018-Jan-18 13:30N 32°05' W 081°04'0 0.0
2018-Jan-18 13:00N 32°05' W 081°04'0 0.0
2018-Jan-18 12:31N 32°05' W 081°04'0 0.0
2018-Jan-18 12:00N 32°05' W 081°04'0 0.0
2018-Jan-18 11:31N 32°05' W 081°04'0 0.0
2018-Jan-18 11:01N 32°05' W 081°04'0 0.0
2018-Jan-18 10:31N 32°05' W 081°04'0 0.0
2018-Jan-18 10:01N 32°05' W 081°04'0 0.0
2018-Jan-18 09:30N 32°05' W 081°04'0 0.0
2018-Jan-18 09:00N 32°05' W 081°04'0 0.0
2018-Jan-18 08:30N 32°05' W 081°04'0 0.0
2018-Jan-18 08:01N 32°05' W 081°04'0 0.0
2018-Jan-18 07:30N 32°05' W 081°04'0 0.0
2018-Jan-18 06:59N 32°05' W 081°04'0 0.0
2018-Jan-18 06:31N 32°05' W 081°04'0 0.0
2018-Jan-18 06:00N 32°05' W 081°04'0 0.0
2018-Jan-18 05:30N 32°05' W 081°04'2 3.5
2018-Jan-18 05:01N 32°05' W 081°06'3 6.6
2018-Jan-18 04:30N 32°08' W 081°08'5 3.3
2018-Jan-18 03:06N 32°05' W 081°04'0 1.8
2018-Jan-18 03:01N 32°05' W 081°04'0 0.0
2018-Jan-18 02:30N 32°05' W 081°04'0 0.0
2018-Jan-18 02:01N 32°05' W 081°04'0 0.0
2018-Jan-18 01:30N 32°05' W 081°04'0 0.0
2018-Jan-18 01:01N 32°05' W 081°04'0 0.0
2018-Jan-18 00:00N 32°05' W 081°04'0 0.0
2018-Jan-17 23:55N 32°05' W 081°04'  
2018-Jan-12 15:00N 32°05' W 081°04'0 0.0
2018-Jan-12 14:30N 32°05' W 081°04'0 0.0
2018-Jan-12 14:00N 32°05' W 081°04'0 0.1
2018-Jan-12 13:30N 32°05' W 081°04'0 0.0
2018-Jan-12 13:00N 32°05' W 081°04'0 0.0
2018-Jan-12 12:30N 32°05' W 081°04'0 0.0
2018-Jan-12 12:00N 32°05' W 081°04'0 0.0
2018-Jan-12 11:30N 32°05' W 081°04'0 0.0
2018-Jan-12 10:58N 32°05' W 081°04'0 0.0
2018-Jan-12 10:30N 32°05' W 081°04'0 0.0
2018-Jan-12 10:00N 32°05' W 081°04'0 0.0
2018-Jan-12 09:30N 32°05' W 081°04'0 0.0
2018-Jan-12 09:00N 32°05' W 081°04'0 0.0
2018-Jan-12 08:30N 32°05' W 081°04'0 0.0
2018-Jan-12 07:59N 32°05' W 081°04'0 0.0
2018-Jan-12 07:29N 32°05' W 081°04'0 0.0
2018-Jan-12 07:00N 32°05' W 081°04'0 0.0
2018-Jan-12 06:30N 32°05' W 081°04'0 0.0
2018-Jan-12 06:00N 32°05' W 081°04'0 0.0
2018-Jan-12 05:30N 32°05' W 081°04'0 0.0
2018-Jan-12 05:00N 32°05' W 081°04'0 0.0
2018-Jan-12 04:30N 32°05' W 081°04'0 0.0
2018-Jan-12 04:00N 32°05' W 081°04'0 0.0
2018-Jan-12 03:30N 32°05' W 081°04'0 0.0
2018-Jan-12 03:00N 32°05' W 081°04'0 0.0
2018-Jan-12 02:30N 32°05' W 081°04'0 0.0
2018-Jan-12 02:00N 32°05' W 081°04'0 0.0
2018-Jan-12 01:30N 32°05' W 081°04'0 0.0
2018-Jan-12 01:00N 32°05' W 081°04'0 0.0
2018-Jan-12 00:30N 32°05' W 081°04'0 0.0
2018-Jan-12 00:00N 32°05' W 081°04'0 0.0
2018-Jan-11 23:30N 32°05' W 081°04'0 0.0
2018-Jan-11 22:58N 32°05' W 081°04'0 0.0
2018-Jan-11 22:30N 32°05' W 081°04'0 0.0
2018-Jan-11 22:00N 32°05' W 081°04'0 0.0
2018-Jan-11 21:30N 32°05' W 081°04'0 0.0
2018-Jan-11 21:00N 32°05' W 081°04'0 0.0
2018-Jan-11 20:30N 32°05' W 081°04'0 0.0
2018-Jan-11 20:00N 32°05' W 081°04'0 0.0
2018-Jan-11 19:30N 32°05' W 081°04'0 0.0
2018-Jan-11 18:59N 32°05' W 081°04'0 0.0
2018-Jan-11 18:30N 32°05' W 081°04'0 0.0
2018-Jan-11 18:00N 32°05' W 081°04'0 0.0
2018-Jan-11 17:30N 32°05' W 081°04'1 1.3
2018-Jan-11 16:25N 32°05' W 081°05'2 5.4
2018-Jan-11 16:00N 32°07' W 081°07'1 2.6
2018-Jan-11 15:30N 32°08' W 081°08'0 0.5
2018-Jan-11 15:00N 32°07' W 081°08'0 0.0
2018-Jan-11 14:30N 32°07' W 081°08'0 0.0
2018-Jan-11 14:00N 32°07' W 081°08'0 0.0
2018-Jan-11 13:30N 32°07' W 081°08'0 0.0
2018-Jan-11 13:00N 32°07' W 081°08'0 0.0
2018-Jan-11 12:29N 32°07' W 081°08'0 0.0
2018-Jan-11 12:00N 32°07' W 081°08'0 0.0
2018-Jan-11 11:30N 32°07' W 081°08'0 0.0
2018-Jan-11 11:00N 32°07' W 081°08'0 0.3
2018-Jan-11 10:30N 32°08' W 081°08'2 3.7
2018-Jan-11 10:00N 32°06' W 081°07'3 5.4
2018-Jan-11 09:30N 32°05' W 081°04'2 3.5
2018-Jan-11 09:00N 32°05' W 081°02'2 3.3
2018-Jan-11 08:30N 32°05' W 081°04'0 0.0
2018-Jan-11 08:00N 32°05' W 081°04'1 1.1
2018-Jan-11 07:30N 32°05' W 081°04'2 4.6
2018-Jan-11 07:00N 32°06' W 081°07'2 3.6
2018-Jan-11 06:30N 32°07' W 081°08'1 1.4
2018-Jan-11 06:00N 32°08' W 081°08'0 0.1
2018-Jan-11 05:30N 32°08' W 081°08'1 1.3
2018-Jan-11 05:00N 32°07' W 081°08'0 0.0
2018-Jan-11 04:30N 32°07' W 081°08'0 0.0
2018-Jan-11 04:00N 32°07' W 081°08'0 0.0
2018-Jan-11 03:30N 32°07' W 081°08'  
Track history (hours):
 
Tides and Currents Weather Stations Pressure Air Temp Water Temp Dewpoint Dewpoint Depression Visibility Wind Speed Wind Dir Waves Ship Positions

Edward J. Moran

Owner: Moran Towing Corporation, New Canaan, CT. More information available from US FCC via Universal Licensing System and Coast Guard Vessel Documentation Center.

Last reported at 2018-Jan-21 03:00 UTC. Time now 2018-Jan-21 03:12 UTC.
Position N 32°05' W 081°04'.

; draft 5.4 m.

Type: Tug. MMSI: 367108030.

Date/timePositionNaut miles runAvg speedWind from/ knotsBaromVisibWave heightAir tempDewpointWater temp
2018-Jan-21 03:00N 32°05' W 081°04'0 0.0
2018-Jan-21 02:30N 32°05' W 081°04'0 0.0
2018-Jan-21 02:00N 32°05' W 081°04'2 5.0
2018-Jan-21 01:31N 32°06' W 081°07'2 4.2
2018-Jan-21 01:00N 32°08' W 081°08'1 2.5
2018-Jan-21 00:30N 32°07' W 081°07'1 3.0
2018-Jan-21 00:01N 32°05' W 081°06'2 3.0
2018-Jan-20 23:30N 32°07' W 081°07'1 2.2
2018-Jan-20 23:00N 32°07' W 081°08'0 0.7
2018-Jan-20 22:30N 32°08' W 081°08'3 5.4
2018-Jan-20 22:01N 32°06' W 081°06'0 0.6
2018-Jan-20 21:31N 32°05' W 081°06'0 0.0
2018-Jan-20 21:00N 32°05' W 081°06'0 0.3
2018-Jan-20 20:30N 32°05' W 081°06'0 0.3
2018-Jan-20 20:00N 32°06' W 081°06'1 0.4
2018-Jan-20 18:31N 32°05' W 081°06'0 0.0
2018-Jan-20 18:30N 32°05' W 081°06'2 3.1
2018-Jan-20 18:00N 32°06' W 081°07'2 4.1
2018-Jan-20 17:31N 32°08' W 081°08'0 0.7
2018-Jan-20 17:00N 32°08' W 081°08'3 5.4
2018-Jan-20 16:30N 32°06' W 081°06'2 4.2
2018-Jan-20 16:00N 32°05' W 081°04'0 0.0
2018-Jan-20 15:30N 32°05' W 081°04'0 0.0
2018-Jan-20 15:00N 32°05' W 081°04'0 0.0
2018-Jan-20 14:31N 32°05' W 081°04'0 0.7
2018-Jan-20 14:01N 32°05' W 081°03'0 0.6
2018-Jan-20 13:30N 32°05' W 081°03'0 0.9
2018-Jan-20 13:00N 32°05' W 081°03'0 0.1
2018-Jan-20 12:30N 32°05' W 081°03'1 2.0
2018-Jan-20 11:57N 32°05' W 081°04'1 2.0
2018-Jan-20 11:30N 32°05' W 081°05'4 7.8
2018-Jan-20 11:00N 32°08' W 081°08'0 0.1
2018-Jan-20 10:30N 32°08' W 081°08'0 0.6
2018-Jan-20 10:00N 32°08' W 081°08'3 5.8
2018-Jan-20 09:30N 32°06' W 081°06'0 0.1
2018-Jan-20 09:00N 32°06' W 081°06'0 0.0
2018-Jan-20 08:30N 32°06' W 081°06'0 0.0
2018-Jan-20 08:00N 32°06' W 081°06'0 0.0
2018-Jan-20 07:30N 32°06' W 081°06'0 0.0
2018-Jan-20 07:01N 32°06' W 081°06'2 3.9
2018-Jan-20 06:30N 32°07' W 081°08'1 2.5
2018-Jan-20 06:00N 32°08' W 081°09'0 0.0
2018-Jan-20 05:30N 32°08' W 081°09'1 1.6
2018-Jan-20 05:00N 32°07' W 081°08'0 0.7
2018-Jan-20 04:30N 32°07' W 081°08'0 0.0
2018-Jan-20 04:00N 32°07' W 081°08'0 0.0
2018-Jan-20 03:30N 32°07' W 081°08'0 0.0
2018-Jan-20 03:00N 32°07' W 081°08'0 0.0
2018-Jan-20 02:30N 32°07' W 081°08'0 0.0
2018-Jan-20 02:00N 32°07' W 081°08'0 0.0
2018-Jan-20 01:30N 32°07' W 081°08'0 0.0
2018-Jan-20 01:00N 32°07' W 081°08'0 0.0
2018-Jan-20 00:30N 32°07' W 081°08'0 0.0
2018-Jan-20 00:00N 32°07' W 081°08'1 1.6
2018-Jan-19 23:31N 32°08' W 081°08'0 0.1
2018-Jan-19 23:00N 32°08' W 081°08'1 1.1
2018-Jan-19 22:30N 32°07' W 081°08'3 4.7
2018-Jan-19 21:57N 32°05' W 081°06'1 2.0
2018-Jan-19 21:30N 32°06' W 081°07'0 0.1
2018-Jan-19 21:00N 32°06' W 081°07'2 4.8
2018-Jan-19 20:31N 32°05' W 081°04'0 0.6
2018-Jan-19 20:01N 32°05' W 081°04'0 0.0
2018-Jan-19 19:31N 32°05' W 081°04'0 0.0
2018-Jan-19 19:01N 32°05' W 081°04'0 0.0
2018-Jan-19 18:29N 32°05' W 081°04'0 0.0
2018-Jan-19 18:01N 32°05' W 081°04'0 0.0
2018-Jan-19 17:30N 32°05' W 081°04'0 0.0
2018-Jan-19 17:00N 32°05' W 081°04'0 0.0
2018-Jan-19 16:30N 32°05' W 081°04'0 0.0
2018-Jan-19 16:01N 32°05' W 081°04'0 0.0
2018-Jan-19 15:30N 32°05' W 081°04'2 3.8
2018-Jan-19 15:00N 32°05' W 081°06'3 6.5
2018-Jan-19 14:30N 32°08' W 081°08'0 0.3
2018-Jan-19 14:01N 32°08' W 081°08'0 0.8
2018-Jan-19 13:31N 32°08' W 081°09'0 0.0
2018-Jan-19 05:59N 32°08' W 081°09'0 0.1
2018-Jan-19 05:30N 32°08' W 081°09'0 0.0
2018-Jan-19 05:01N 32°08' W 081°09'0 0.1
2018-Jan-19 04:30N 32°08' W 081°08'0 0.3
2018-Jan-19 04:00N 32°08' W 081°08'2 3.2
2018-Jan-19 03:31N 32°07' W 081°07'2 4.4
2018-Jan-19 03:01N 32°05' W 081°06'2 4.3
2018-Jan-19 02:31N 32°07' W 081°07'2 3.0
2018-Jan-19 02:01N 32°08' W 081°08'0 0.4
2018-Jan-19 01:30N 32°08' W 081°09'0 0.0
2018-Jan-19 01:00N 32°08' W 081°09'1 1.9
2018-Jan-19 00:31N 32°07' W 081°08'0 0.1
2018-Jan-19 00:01N 32°07' W 081°08'0 0.5
2018-Jan-18 23:31N 32°07' W 081°08'2 4.5
2018-Jan-18 23:00N 32°06' W 081°06'2 4.5
2018-Jan-18 22:31N 32°05' W 081°04'0 0.0
2018-Jan-18 21:14N 32°05' W 081°04'0 0.0
2018-Jan-18 21:00N 32°05' W 081°04'0 0.0
2018-Jan-18 20:31N 32°05' W 081°04'0 0.0
2018-Jan-18 20:00N 32°05' W 081°04'0 0.0
2018-Jan-18 19:30N 32°05' W 081°04'0 0.0
2018-Jan-18 19:00N 32°05' W 081°04'0 0.0
2018-Jan-18 18:30N 32°05' W 081°04'2 3.7
2018-Jan-18 18:01N 32°05' W 081°06'2 4.0
2018-Jan-18 17:30N 32°07' W 081°08'1 2.0
2018-Jan-18 17:01N 32°08' W 081°08'0 0.5
2018-Jan-18 16:31N 32°07' W 081°08'2 4.9
2018-Jan-18 16:01N 32°06' W 081°06'1 2.0
2018-Jan-18 15:30N 32°06' W 081°07'2 4.2
2018-Jan-18 15:00N 32°08' W 081°08'1 1.4
2018-Jan-18 14:31N 32°07' W 081°08'3 5.5
2018-Jan-18 14:01N 32°05' W 081°06'2 3.6
2018-Jan-18 13:30N 32°05' W 081°04'0 0.0
2018-Jan-18 13:00N 32°05' W 081°04'0 0.0
2018-Jan-18 12:31N 32°05' W 081°04'0 0.0
2018-Jan-18 12:00N 32°05' W 081°04'0 0.0
2018-Jan-18 11:31N 32°05' W 081°04'0 0.0
2018-Jan-18 11:01N 32°05' W 081°04'0 0.0
2018-Jan-18 10:31N 32°05' W 081°04'0 0.0
2018-Jan-18 10:01N 32°05' W 081°04'0 0.0
2018-Jan-18 09:30N 32°05' W 081°04'0 0.0
2018-Jan-18 09:00N 32°05' W 081°04'0 0.0
2018-Jan-18 08:30N 32°05' W 081°04'0 0.0
2018-Jan-18 08:01N 32°05' W 081°04'0 0.0
2018-Jan-18 07:30N 32°05' W 081°04'0 0.0
2018-Jan-18 06:59N 32°05' W 081°04'0 0.0
2018-Jan-18 06:31N 32°05' W 081°04'0 0.0
2018-Jan-18 06:00N 32°05' W 081°04'0 0.0
2018-Jan-18 05:30N 32°05' W 081°04'2 3.5
2018-Jan-18 05:01N 32°05' W 081°06'3 6.6
2018-Jan-18 04:30N 32°08' W 081°08'5 3.3
2018-Jan-18 03:06N 32°05' W 081°04'0 1.8
2018-Jan-18 03:01N 32°05' W 081°04'0 0.0
2018-Jan-18 02:30N 32°05' W 081°04'0 0.0
2018-Jan-18 02:01N 32°05' W 081°04'0 0.0
2018-Jan-18 01:30N 32°05' W 081°04'0 0.0
2018-Jan-18 01:01N 32°05' W 081°04'0 0.0
2018-Jan-18 00:00N 32°05' W 081°04'0 0.0
2018-Jan-17 23:55N 32°05' W 081°04'  
2018-Jan-12 15:00N 32°05' W 081°04'0 0.0
2018-Jan-12 14:30N 32°05' W 081°04'0 0.0
2018-Jan-12 14:00N 32°05' W 081°04'0 0.1
2018-Jan-12 13:30N 32°05' W 081°04'0 0.0
2018-Jan-12 13:00N 32°05' W 081°04'0 0.0
2018-Jan-12 12:30N 32°05' W 081°04'0 0.0
2018-Jan-12 12:00N 32°05' W 081°04'0 0.0
2018-Jan-12 11:30N 32°05' W 081°04'0 0.0
2018-Jan-12 10:58N 32°05' W 081°04'0 0.0
2018-Jan-12 10:30N 32°05' W 081°04'0 0.0
2018-Jan-12 10:00N 32°05' W 081°04'0 0.0
2018-Jan-12 09:30N 32°05' W 081°04'0 0.0
2018-Jan-12 09:00N 32°05' W 081°04'0 0.0
2018-Jan-12 08:30N 32°05' W 081°04'0 0.0
2018-Jan-12 07:59N 32°05' W 081°04'0 0.0
2018-Jan-12 07:29N 32°05' W 081°04'0 0.0
2018-Jan-12 07:00N 32°05' W 081°04'0 0.0
2018-Jan-12 06:30N 32°05' W 081°04'0 0.0
2018-Jan-12 06:00N 32°05' W 081°04'0 0.0
2018-Jan-12 05:30N 32°05' W 081°04'0 0.0
2018-Jan-12 05:00N 32°05' W 081°04'0 0.0
2018-Jan-12 04:30N 32°05' W 081°04'0 0.0
2018-Jan-12 04:00N 32°05' W 081°04'0 0.0
2018-Jan-12 03:30N 32°05' W 081°04'0 0.0
2018-Jan-12 03:00N 32°05' W 081°04'0 0.0
2018-Jan-12 02:30N 32°05' W 081°04'0 0.0
2018-Jan-12 02:00N 32°05' W 081°04'0 0.0
2018-Jan-12 01:30N 32°05' W 081°04'0 0.0
2018-Jan-12 01:00N 32°05' W 081°04'0 0.0
2018-Jan-12 00:30N 32°05' W 081°04'0 0.0
2018-Jan-12 00:00N 32°05' W 081°04'0 0.0
2018-Jan-11 23:30N 32°05' W 081°04'0 0.0
2018-Jan-11 22:58N 32°05' W 081°04'0 0.0
2018-Jan-11 22:30N 32°05' W 081°04'0 0.0
2018-Jan-11 22:00N 32°05' W 081°04'0 0.0
2018-Jan-11 21:30N 32°05' W 081°04'0 0.0
2018-Jan-11 21:00N 32°05' W 081°04'0 0.0
2018-Jan-11 20:30N 32°05' W 081°04'0 0.0
2018-Jan-11 20:00N 32°05' W 081°04'0 0.0
2018-Jan-11 19:30N 32°05' W 081°04'0 0.0
2018-Jan-11 18:59N 32°05' W 081°04'0 0.0
2018-Jan-11 18:30N 32°05' W 081°04'0 0.0
2018-Jan-11 18:00N 32°05' W 081°04'0 0.0
2018-Jan-11 17:30N 32°05' W 081°04'1 1.3
2018-Jan-11 16:25N 32°05' W 081°05'2 5.4
2018-Jan-11 16:00N 32°07' W 081°07'1 2.6
2018-Jan-11 15:30N 32°08' W 081°08'0 0.5
2018-Jan-11 15:00N 32°07' W 081°08'0 0.0
2018-Jan-11 14:30N 32°07' W 081°08'0 0.0
2018-Jan-11 14:00N 32°07' W 081°08'0 0.0
2018-Jan-11 13:30N 32°07' W 081°08'0 0.0
2018-Jan-11 13:00N 32°07' W 081°08'0 0.0
2018-Jan-11 12:29N 32°07' W 081°08'0 0.0
2018-Jan-11 12:00N 32°07' W 081°08'0 0.0
2018-Jan-11 11:30N 32°07' W 081°08'0 0.0
2018-Jan-11 11:00N 32°07' W 081°08'0 0.3
2018-Jan-11 10:30N 32°08' W 081°08'2 3.7
2018-Jan-11 10:00N 32°06' W 081°07'3 5.4
2018-Jan-11 09:30N 32°05' W 081°04'2 3.5
2018-Jan-11 09:00N 32°05' W 081°02'2 3.3
2018-Jan-11 08:30N 32°05' W 081°04'0 0.0
2018-Jan-11 08:00N 32°05' W 081°04'1 1.1
2018-Jan-11 07:30N 32°05' W 081°04'2 4.6
2018-Jan-11 07:00N 32°06' W 081°07'2 3.6
2018-Jan-11 06:30N 32°07' W 081°08'1 1.4
2018-Jan-11 06:00N 32°08' W 081°08'0 0.1
2018-Jan-11 05:30N 32°08' W 081°08'1 1.3
2018-Jan-11 05:00N 32°07' W 081°08'0 0.0
2018-Jan-11 04:30N 32°07' W 081°08'0 0.0
2018-Jan-11 04:00N 32°07' W 081°08'0 0.0
2018-Jan-11 03:30N 32°07' W 081°08'  

Dump ship's entire track history